Time;durP1;ratioP1;P1;durP2;ratioP2;P2;SDS_P1;SDS_P2;PMS_P1;PMS_P2;Temp;Humidity;BMP_temperature;BMP_pressure;BME280_temperature;BME280_humidity;BME280_pressure;Samples;Min_cycle;Max_cycle;Signal;HPM_P1;HPM_P2
2021/09/12 00:00:35;;;;;;;8.15;3.38;;;17.60;99.90;;;;;;5012771;28;20057;-76
2021/09/12 00:03:01;;;;;;;7.85;3.67;;;17.50;99.90;;;;;;5013006;28;20034;-77
2021/09/12 00:05:27;;;;;;;8.15;3.88;;;17.50;99.90;;;;;;5014115;28;20108;-77
2021/09/12 00:07:52;;;;;;;15.25;4.68;;;17.40;99.90;;;;;;5016913;28;20024;-76
2021/09/12 00:10:18;;;;;;;8.82;4.05;;;17.40;99.90;;;;;;5016352;28;20030;-76
2021/09/12 00:12:46;;;;;;;5.00;3.45;;;17.30;99.90;;;;;;5016569;28;20053;-76
2021/09/12 00:15:12;;;;;;;10.63;3.70;;;17.30;99.90;;;;;;5016448;28;20401;-76
2021/09/12 00:17:38;;;;;;;10.27;3.92;;;17.30;99.90;;;;;;5015951;28;20022;-77
2021/09/12 00:20:05;;;;;;;11.82;4.72;;;17.20;99.90;;;;;;5016744;28;20026;-76
2021/09/12 00:22:31;;;;;;;6.65;3.10;;;17.10;99.90;;;;;;5016444;28;20113;-76
2021/09/12 00:24:56;;;;;;;8.65;4.00;;;17.10;99.90;;;;;;5015890;28;20112;-77
2021/09/12 00:27:22;;;;;;;10.10;5.05;;;17.00;99.90;;;;;;5016480;28;20029;-76
2021/09/12 00:29:48;;;;;;;15.38;4.72;;;16.90;99.90;;;;;;5016389;28;20046;-77
2021/09/12 00:32:14;;;;;;;7.45;3.83;;;16.90;99.90;;;;;;5015772;28;20088;-76
2021/09/12 00:34:39;;;;;;;13.70;4.60;;;16.80;99.90;;;;;;5016447;28;20061;-77
2021/09/12 00:37:08;;;;;;;9.35;4.60;;;16.80;99.90;;;;;;5016123;28;20394;-77
2021/09/12 00:39:33;;;;;;;9.77;4.65;;;16.70;99.90;;;;;;5015365;28;20227;-75
2021/09/12 00:41:59;;;;;;;8.52;4.10;;;16.60;99.90;;;;;;5016089;28;20100;-76
2021/09/12 00:44:25;;;;;;;14.60;5.47;;;16.50;99.90;;;;;;5016086;28;20022;-75
2021/09/12 00:46:54;;;;;;;7.43;4.70;;;16.50;99.90;;;;;;5015201;28;20474;-77
2021/09/12 00:49:20;;;;;;;10.13;5.20;;;16.50;99.90;;;;;;5016176;28;20474;-76
2021/09/12 00:51:46;;;;;;;18.02;5.25;;;16.50;99.90;;;;;;5018402;28;20127;-76
2021/09/12 00:54:13;;;;;;;8.60;4.65;;;16.40;99.90;;;;;;5015288;28;20084;-77
2021/09/12 00:56:41;;;;;;;9.07;5.18;;;16.40;99.90;;;;;;5015920;28;20038;-76
2021/09/12 00:59:11;;;;;;;8.18;5.38;;;16.30;99.90;;;;;;5015942;28;20042;-76
2021/09/12 01:01:40;;;;;;;13.05;5.25;;;16.30;99.90;;;;;;5015353;28;20022;-76
2021/09/12 01:04:05;;;;;;;11.13;5.85;;;16.30;99.90;;;;;;5017314;28;20048;-75
2021/09/12 01:06:31;;;;;;;10.07;5.47;;;16.20;99.90;;;;;;5015371;28;20013;-76
2021/09/12 01:08:59;;;;;;;11.27;5.80;;;16.20;99.90;;;;;;5015727;28;20030;-76
2021/09/12 01:11:24;;;;;;;5.85;4.93;;;16.10;99.90;;;;;;5015701;28;20026;-76
2021/09/12 01:13:50;;;;;;;11.43;6.10;;;16.10;99.90;;;;;;5015895;28;20495;-76
2021/09/12 01:16:19;;;;;;;12.48;5.70;;;16.10;99.90;;;;;;5015743;28;20034;-75
2021/09/12 01:18:45;;;;;;;9.77;5.15;;;16.00;99.90;;;;;;5015358;28;20450;-76
2021/09/12 01:21:16;;;;;;;10.32;5.18;;;16.00;99.90;;;;;;5014872;28;20053;-75
2021/09/12 01:23:43;;;;;;;8.38;5.20;;;16.00;99.90;;;;;;5015479;28;20026;-78
2021/09/12 01:26:08;;;;;;;12.57;4.93;;;15.90;99.90;;;;;;5015425;28;20543;-77
2021/09/12 01:28:38;;;;;;;9.55;5.35;;;15.90;99.90;;;;;;5014643;28;20057;-77
2021/09/12 01:31:04;;;;;;;10.95;5.45;;;15.80;99.90;;;;;;5015391;28;20076;-76
2021/09/12 01:33:30;;;;;;;14.38;5.82;;;15.80;99.90;;;;;;5015468;28;20398;-75
2021/09/12 01:35:55;;;;;;;11.80;6.65;;;15.80;99.90;;;;;;5015191;28;20045;-76
2021/09/12 01:38:21;;;;;;;13.45;6.55;;;15.70;99.90;;;;;;5015614;28;20030;-75
2021/09/12 01:40:46;;;;;;;15.00;5.78;;;15.70;99.90;;;;;;5015823;28;20084;-76
2021/09/12 01:43:12;;;;;;;10.07;5.88;;;15.70;99.90;;;;;;5014368;28;20022;-76
2021/09/12 01:45:38;;;;;;;9.25;5.50;;;15.60;99.90;;;;;;5015190;28;20036;-76
2021/09/12 01:48:04;;;;;;;15.40;6.93;;;15.60;99.90;;;;;;5015086;28;20036;-77
2021/09/12 01:50:30;;;;;;;11.15;6.03;;;15.60;99.90;;;;;;5014220;28;20077;-76
2021/09/12 01:52:56;;;;;;;8.85;6.45;;;15.60;99.90;;;;;;5015425;28;20437;-76
2021/09/12 01:55:22;;;;;;;14.25;6.80;;;15.50;99.90;;;;;;5015272;28;20029;-76
2021/09/12 01:57:48;;;;;;;16.35;6.72;;;15.50;99.90;;;;;;5013924;28;20478;-76
2021/09/12 02:00:14;;;;;;;24.13;8.20;;;15.40;99.90;;;;;;5014826;28;20038;-76
2021/09/12 02:02:39;;;;;;;11.02;6.45;;;15.40;99.90;;;;;;5013989;28;20018;-76
2021/09/12 02:05:06;;;;;;;13.63;6.40;;;14.40;99.90;;;;;;5014670;28;20036;-77
2021/09/12 02:07:31;;;;;;;13.85;7.25;;;15.40;99.90;;;;;;5014591;28;20022;-75
2021/09/12 02:09:57;;;;;;;10.40;7.10;;;15.30;99.90;;;;;;5013753;28;20088;-76
2021/09/12 02:12:23;;;;;;;12.90;6.38;;;15.40;99.90;;;;;;5017756;28;20105;-77
2021/09/12 02:14:48;;;;;;;10.55;6.90;;;15.30;99.90;;;;;;5014432;28;20030;-75
2021/09/12 02:17:14;;;;;;;10.13;7.03;;;15.30;99.90;;;;;;5013728;28;20026;-76
2021/09/12 02:19:40;;;;;;;17.58;7.60;;;15.30;99.90;;;;;;5014395;28;20419;-76
2021/09/12 02:22:07;;;;;;;12.20;7.05;;;15.30;99.90;;;;;;5014388;28;20029;-77
2021/09/12 02:24:33;;;;;;;16.92;7.03;;;15.30;99.90;;;;;;5013516;28;20504;-76
2021/09/12 02:26:58;;;;;;;12.50;6.60;;;15.30;99.90;;;;;;5013827;28;20026;-77
2021/09/12 02:29:24;;;;;;;17.10;7.13;;;15.30;99.90;;;;;;5014001;28;20032;-77
2021/09/12 02:31:50;;;;;;;15.20;6.95;;;15.20;99.90;;;;;;5013584;28;20024;-77
2021/09/12 02:34:16;;;;;;;15.57;7.40;;;15.20;99.90;;;;;;5014093;28;20112;-77
2021/09/12 02:36:42;;;;;;;12.77;7.47;;;15.20;99.90;;;;;;5013954;28;20101;-76
2021/09/12 02:39:08;;;;;;;16.20;8.35;;;15.20;99.90;;;;;;5013510;28;20030;-75
2021/09/12 02:41:34;;;;;;;14.80;7.25;;;15.10;99.90;;;;;;5014153;28;20036;-76
2021/09/12 02:43:59;;;;;;;13.93;7.72;;;15.10;99.90;;;;;;5014028;28;20029;-76
2021/09/12 02:46:25;;;;;;;17.40;8.07;;;15.10;99.90;;;;;;5013325;28;20500;-76
2021/09/12 02:48:50;;;;;;;12.45;7.55;;;15.10;99.90;;;;;;5013937;28;20030;-75
2021/09/12 02:51:16;;;;;;;23.95;9.48;;;15.00;99.90;;;;;;5013473;28;20370;-75
2021/09/12 02:53:42;;;;;;;22.08;9.90;;;15.00;99.90;;;;;;5013461;28;20065;-76
2021/09/12 02:56:07;;;;;;;17.10;9.60;;;15.00;99.90;;;;;;5013701;28;20466;-76
2021/09/12 02:58:33;;;;;;;17.25;9.25;;;15.00;99.90;;;;;;5013743;28;20434;-75
2021/09/12 03:00:58;;;;;;;16.73;9.65;;;14.90;99.90;;;;;;5012812;28;20034;-76
2021/09/12 03:03:24;;;;;;;18.98;10.35;;;14.90;99.90;;;;;;5013546;28;20056;-77
2021/09/12 03:05:49;;;;;;;14.40;9.82;;;14.90;99.90;;;;;;5013402;28;20021;-77
2021/09/12 03:08:15;;;;;;;19.55;9.27;;;14.90;99.90;;;;;;5013018;28;20065;-77
2021/09/12 03:10:40;;;;;;;13.75;9.02;;;14.90;99.90;;;;;;5013605;28;20054;-76
2021/09/12 03:13:06;;;;;;;18.17;9.25;;;14.90;99.90;;;;;;5012738;28;20037;-76
2021/09/12 03:15:32;;;;;;;20.33;10.43;;;14.90;99.90;;;;;;5013513;28;20025;-76
2021/09/12 03:17:57;;;;;;;19.67;9.52;;;14.90;99.90;;;;;;5013453;28;20040;-78
2021/09/12 03:20:23;;;;;;;21.23;10.05;;;14.80;99.90;;;;;;5012706;28;20029;-76
2021/09/12 03:22:48;;;;;;;18.77;8.75;;;14.80;99.90;;;;;;5015162;28;20024;-77
2021/09/12 03:25:14;;;;;;;14.93;9.82;;;14.80;99.90;;;;;;5013502;28;20029;-77
2021/09/12 03:27:40;;;;;;;18.80;9.82;;;14.70;99.90;;;;;;5012659;28;20379;-77
2021/09/12 03:30:06;;;;;;;15.50;9.80;;;14.80;99.90;;;;;;5013211;28;20549;-75
2021/09/12 03:32:32;;;;;;;19.77;9.80;;;14.70;99.90;;;;;;5013296;28;20021;-77
2021/09/12 03:34:58;;;;;;;25.92;9.48;;;14.60;99.90;;;;;;5012714;28;20034;-76
2021/09/12 03:37:23;;;;;;;24.67;10.15;;;14.70;99.90;;;;;;5013896;28;20014;-76
2021/09/12 03:39:49;;;;;;;20.60;11.02;;;14.80;99.90;;;;;;5013665;28;20033;-75
2021/09/12 03:42:14;;;;;;;15.80;10.15;;;14.80;99.90;;;;;;5012651;28;20444;-77
2021/09/12 03:44:40;;;;;;;21.95;10.38;;;14.90;99.90;;;;;;5013243;28;20030;-77
2021/09/12 03:47:05;;;;;;;24.90;10.20;;;14.90;99.90;;;;;;5013117;28;20470;-75
2021/09/12 03:49:31;;;;;;;16.45;10.70;;;14.90;99.90;;;;;;5012399;28;20367;-77
2021/09/12 03:51:56;;;;;;;25.38;12.15;;;14.90;99.90;;;;;;5012869;28;20042;-76
2021/09/12 03:54:22;;;;;;;16.77;10.75;;;15.00;99.90;;;;;;5012946;28;20058;-76
2021/09/12 03:56:48;;;;;;;22.40;11.57;;;15.00;99.90;;;;;;5012433;28;20021;-78
2021/09/12 03:59:14;;;;;;;23.85;11.68;;;15.10;99.90;;;;;;5012760;28;20049;-75
2021/09/12 04:01:39;;;;;;;22.30;12.50;;;15.10;99.90;;;;;;5013038;28;20046;-75
2021/09/12 04:04:06;;;;;;;25.85;12.40;;;15.20;99.90;;;;;;5012174;28;20116;-76
2021/09/12 04:06:31;;;;;;;20.42;12.60;;;15.20;99.90;;;;;;5013298;28;20025;-77
2021/09/12 04:08:57;;;;;;;19.67;12.82;;;15.20;99.90;;;;;;5012872;28;20532;-76
2021/09/12 04:11:22;;;;;;;23.55;13.38;;;15.30;99.90;;;;;;5012203;28;20029;-76
2021/09/12 04:13:48;;;;;;;22.50;13.63;;;15.30;99.90;;;;;;5012963;28;20030;-76
2021/09/12 04:16:14;;;;;;;26.48;12.85;;;15.30;99.90;;;;;;5012887;28;20018;-76
2021/09/12 04:18:40;;;;;;;23.67;13.65;;;15.40;99.90;;;;;;5012162;28;20038;-76
2021/09/12 04:21:05;;;;;;;22.52;13.65;;;15.40;99.90;;;;;;5012677;28;20028;-76
2021/09/12 04:23:31;;;;;;;23.92;13.45;;;15.30;99.90;;;;;;5012101;28;20022;-77
2021/09/12 04:25:56;;;;;;;27.92;14.88;;;15.30;99.90;;;;;;5012815;28;20049;-76
2021/09/12 04:28:22;;;;;;;27.33;15.48;;;15.30;99.90;;;;;;5012573;28;20025;-76
2021/09/12 04:30:47;;;;;;;25.45;15.88;;;15.30;99.90;;;;;;5011866;28;20034;-78
2021/09/12 04:33:13;;;;;;;27.40;15.15;;;15.30;99.90;;;;;;5012443;28;20068;-76
2021/09/12 04:35:42;;;;;;;31.25;14.05;;;15.30;99.90;;;;;;5012494;28;20108;-76
2021/09/12 04:38:07;;;;;;;24.98;14.75;;;15.40;99.90;;;;;;5011878;28;20026;-76
2021/09/12 04:40:33;;;;;;;25.75;14.40;;;15.30;99.90;;;;;;5012514;28;20161;-76
2021/09/12 04:42:58;;;;;;;25.02;15.25;;;15.30;99.90;;;;;;5012714;28;20041;-76
2021/09/12 04:45:24;;;;;;;29.08;13.93;;;15.30;99.90;;;;;;5011832;28;20393;-76
2021/09/12 04:47:49;;;;;;;26.10;14.10;;;15.30;99.90;;;;;;5012377;28;20026;-76
2021/09/12 04:50:15;;;;;;;27.13;13.32;;;15.40;99.90;;;;;;5012738;28;20422;-76
2021/09/12 04:52:43;;;;;;;21.40;13.77;;;15.40;99.90;;;;;;5015109;28;20556;-76
2021/09/12 04:55:09;;;;;;;26.55;13.73;;;15.40;99.90;;;;;;5015976;28;20388;-76
2021/09/12 04:57:34;;;;;;;25.27;13.82;;;15.40;99.90;;;;;;5015866;28;20026;-75
2021/09/12 05:00:00;;;;;;;29.30;13.65;;;15.40;99.90;;;;;;5014939;28;20041;-77
2021/09/12 05:02:26;;;;;;;21.88;12.65;;;15.40;99.90;;;;;;5015726;28;20105;-77
2021/09/12 05:04:52;;;;;;;27.27;14.65;;;15.30;99.90;;;;;;5015762;28;20034;-76
2021/09/12 05:07:17;;;;;;;27.20;13.68;;;15.20;99.90;;;;;;5015371;28;20105;-77
2021/09/12 05:09:43;;;;;;;25.45;13.55;;;15.20;99.90;;;;;;5015623;28;20026;-78
2021/09/12 05:12:08;;;;;;;20.80;12.57;;;15.10;99.90;;;;;;5015531;28;20018;-77
2021/09/12 05:14:34;;;;;;;23.40;13.10;;;15.10;99.90;;;;;;5014788;28;20037;-77
2021/09/12 05:17:00;;;;;;;25.67;14.73;;;15.10;99.90;;;;;;5015124;28;20022;-76
2021/09/12 05:19:25;;;;;;;25.85;14.48;;;15.00;99.90;;;;;;5015661;28;20084;-77
2021/09/12 05:21:51;;;;;;;27.17;14.45;;;15.00;99.90;;;;;;5015454;28;20022;-76
2021/09/12 05:24:16;;;;;;;33.60;15.77;;;15.00;99.90;;;;;;5015433;28;20029;-76
2021/09/12 05:26:42;;;;;;;27.15;14.93;;;15.00;99.90;;;;;;5014839;28;20022;-77
2021/09/12 05:29:07;;;;;;;33.15;15.18;;;15.00;99.90;;;;;;5015402;28;20389;-76
2021/09/12 05:31:33;;;;;;;21.77;13.25;;;15.00;99.90;;;;;;5015337;28;20359;-76
2021/09/12 05:33:58;;;;;;;21.20;13.48;;;15.00;99.90;;;;;;5014448;28;20458;-76
2021/09/12 05:36:24;;;;;;;32.00;14.57;;;15.10;99.90;;;;;;5015090;28;20044;-76
2021/09/12 05:38:50;;;;;;;20.83;12.68;;;15.00;99.90;;;;;;5015149;28;20061;-76
2021/09/12 05:41:16;;;;;;;26.70;13.15;;;15.10;99.90;;;;;;5014466;28;20083;-76
2021/09/12 05:43:41;;;;;;;24.15;13.65;;;15.10;99.90;;;;;;5015106;28;20037;-77
2021/09/12 05:46:07;;;;;;;19.02;12.48;;;15.10;99.90;;;;;;5015095;28;20072;-76
2021/09/12 05:48:32;;;;;;;21.23;13.15;;;15.20;99.90;;;;;;5014125;28;20030;-76
2021/09/12 05:50:58;;;;;;;26.02;14.07;;;15.20;99.90;;;;;;5015038;28;20036;-75
2021/09/12 05:53:24;;;;;;;22.88;13.85;;;15.20;99.90;;;;;;5013677;28;20556;-76
2021/09/12 05:55:50;;;;;;;22.45;13.23;;;15.20;99.90;;;;;;5014358;28;20036;-77
2021/09/12 05:58:16;;;;;;;22.30;14.05;;;15.20;99.90;;;;;;5014775;28;20053;-77
2021/09/12 06:00:41;;;;;;;24.30;13.57;;;15.20;99.90;;;;;;5015272;28;20109;-76
2021/09/12 06:03:08;;;;;;;20.02;12.02;;;15.20;99.90;;;;;;5015610;28;20057;-75
2021/09/12 06:05:33;;;;;;;22.77;12.70;;;16.00;99.90;;;;;;5015074;28;20034;-78
2021/09/12 06:08:02;;;;;;;19.95;13.20;;;15.20;99.90;;;;;;5014683;28;20025;-75
2021/09/12 06:10:27;;;;;;;23.08;13.05;;;15.20;99.90;;;;;;5013467;28;20413;-75
2021/09/12 06:12:53;;;;;;;23.13;14.23;;;15.20;99.90;;;;;;5014423;28;20101;-75
2021/09/12 06:15:19;;;;;;;19.35;12.82;;;15.30;99.90;;;;;;5014206;28;20022;-76
2021/09/12 06:17:44;;;;;;;22.75;14.45;;;15.30;99.90;;;;;;5013287;28;20030;-75
2021/09/12 06:20:11;;;;;;;18.77;13.85;;;15.40;99.90;;;;;;5014254;28;20394;-76
2021/09/12 06:22:45;;;;;;;27.02;13.88;;;15.40;99.90;;;;;;5014184;28;20486;-74
2021/09/12 06:25:11;;;;;;;19.33;13.45;;;15.50;99.90;;;;;;5013548;28;20036;-75
2021/09/12 06:27:38;;;;;;;25.52;13.73;;;15.50;99.90;;;;;;5014120;28;20026;-75
2021/09/12 06:30:06;;;;;;;25.13;13.27;;;15.50;99.90;;;;;;5013328;28;20072;-75
2021/09/12 06:32:31;;;;;;;23.27;13.90;;;15.50;99.90;;;;;;5014001;28;20037;-78
2021/09/12 06:34:57;;;;;;;19.55;13.35;;;15.50;99.90;;;;;;5014115;28;20034;-76
2021/09/12 06:37:22;;;;;;;22.98;13.63;;;15.50;99.90;;;;;;5013363;28;20076;-76
2021/09/12 06:39:48;;;;;;;26.77;13.82;;;15.50;99.90;;;;;;5013909;28;20034;-76
2021/09/12 06:42:13;;;;;;;22.63;14.57;;;15.50;99.90;;;;;;5014006;28;20113;-77
2021/09/12 06:44:39;;;;;;;19.98;13.30;;;15.60;99.90;;;;;;5013217;28;20065;-75
2021/09/12 06:47:05;;;;;;;23.73;13.93;;;15.70;99.90;;;;;;5013919;28;20532;-76
2021/09/12 06:49:30;;;;;;;19.50;13.60;;;15.80;99.90;;;;;;5013979;28;20033;-76
2021/09/12 06:51:56;;;;;;;18.73;13.85;;;15.90;99.90;;;;;;5012890;28;20054;-75
2021/09/12 06:54:21;;;;;;;21.23;14.18;;;16.00;99.90;;;;;;5013631;28;20021;-75
2021/09/12 06:56:47;;;;;;;30.48;15.43;;;16.10;99.90;;;;;;5013613;28;20383;-75
2021/09/12 06:59:12;;;;;;;21.75;14.13;;;16.20;99.90;;;;;;5012880;28;20482;-78
2021/09/12 07:01:38;;;;;;;17.67;12.85;;;16.40;99.90;;;;;;5013604;28;20378;-76
2021/09/12 07:04:04;;;;;;;23.92;13.30;;;16.60;99.90;;;;;;5013760;28;20029;-77
2021/09/12 07:06:29;;;;;;;24.38;14.30;;;16.80;99.90;;;;;;5012813;28;20034;-75
2021/09/12 07:08:55;;;;;;;24.35;13.25;;;17.00;99.90;;;;;;5013467;28;20552;-76
2021/09/12 07:11:20;;;;;;;20.00;13.38;;;17.00;99.90;;;;;;5013531;28;20493;-76
2021/09/12 07:13:46;;;;;;;21.30;13.55;;;17.10;99.90;;;;;;5012085;28;20029;-77
2021/09/12 07:16:12;;;;;;;20.83;13.10;;;17.10;99.90;;;;;;5013574;28;20026;-77
2021/09/12 07:18:37;;;;;;;26.08;13.70;;;17.20;99.90;;;;;;5013488;28;20038;-76
2021/09/12 07:21:03;;;;;;;23.92;13.25;;;17.20;99.90;;;;;;5012698;28;20481;-75
2021/09/12 07:23:29;;;;;;;27.55;12.95;;;17.20;99.90;;;;;;5013268;28;20026;-76
2021/09/12 07:25:55;;;;;;;21.60;13.82;;;17.20;99.90;;;;;;5013324;28;20079;-76
2021/09/12 07:28:21;;;;;;;22.33;13.00;;;17.20;99.90;;;;;;5012515;28;20045;-75
2021/09/12 07:30:47;;;;;;;25.20;13.95;;;17.20;99.90;;;;;;5013403;28;20389;-75
2021/09/12 07:33:12;;;;;;;22.80;13.55;;;17.20;99.90;;;;;;5012853;28;20501;-75
2021/09/12 07:35:38;;;;;;;22.92;12.90;;;17.20;99.90;;;;;;5013248;28;20474;-75
2021/09/12 07:38:03;;;;;;;25.17;14.00;;;17.20;99.90;;;;;;5013096;28;20517;-76
2021/09/12 07:40:29;;;;;;;24.60;13.25;;;17.30;99.90;;;;;;5012557;28;20038;-75
2021/09/12 07:42:54;;;;;;;17.85;12.35;;;17.40;99.90;;;;;;5012975;28;20045;-77
2021/09/12 07:45:20;;;;;;;24.20;13.93;;;17.50;99.90;;;;;;5013163;28;20045;-75
2021/09/12 07:47:46;;;;;;;20.55;12.63;;;17.60;99.90;;;;;;5012432;28;20030;-76
2021/09/12 07:50:12;;;;;;;19.33;12.52;;;17.60;99.90;;;;;;5013228;28;20026;-76
2021/09/12 07:52:42;;;;;;;26.27;13.73;;;17.70;99.90;;;;;;5012827;28;20050;-75
2021/09/12 07:55:12;;;;;;;26.13;13.63;;;17.70;99.90;;;;;;5012321;28;20025;-76
2021/09/12 07:57:38;;;;;;;30.38;14.55;;;17.70;99.90;;;;;;5012819;28;20041;-76
2021/09/12 08:00:05;;;;;;;23.92;14.45;;;17.80;99.90;;;;;;5012908;28;20034;-77
2021/09/12 08:02:30;;;;;;;26.50;14.23;;;17.80;99.90;;;;;;5012410;28;20072;-75
2021/09/12 08:04:56;;;;;;;25.77;13.15;;;17.80;99.90;;;;;;5012916;28;20030;-75
2021/09/12 08:07:22;;;;;;;23.08;14.25;;;17.80;99.90;;;;;;5012939;28;20026;-76
2021/09/12 08:09:47;;;;;;;27.05;13.60;;;17.80;99.90;;;;;;5012516;28;20486;-76
2021/09/12 08:12:13;;;;;;;18.95;13.95;;;17.80;99.90;;;;;;5012976;28;20033;-76
2021/09/12 08:14:38;;;;;;;21.38;13.57;;;17.90;99.90;;;;;;5013305;28;20021;-76
2021/09/12 08:17:07;;;;;;;21.05;13.75;;;18.10;99.90;;;;;;5012641;28;20029;-76
2021/09/12 08:19:33;;;;;;;32.97;14.65;;;18.10;99.90;;;;;;5013439;28;20041;-76
2021/09/12 08:21:58;;;;;;;25.40;13.75;;;18.20;99.90;;;;;;5020040;28;20358;-76
2021/09/12 08:24:24;;;;;;;29.40;14.45;;;18.30;99.90;;;;;;5019813;28;20026;-77
2021/09/12 08:26:52;;;;;;;27.67;14.48;;;18.30;99.90;;;;;;5016709;28;20421;-77
2021/09/12 08:29:18;;;;;;;28.63;16.63;;;18.30;99.90;;;;;;5017578;28;20029;-77
2021/09/12 08:31:44;;;;;;;36.65;16.13;;;18.40;99.90;;;;;;5023598;28;20030;-77
2021/09/12 08:34:09;;;;;;;31.52;16.40;;;18.30;99.90;;;;;;5024358;28;20034;-77
2021/09/12 08:36:35;;;;;;;30.40;16.58;;;18.30;99.90;;;;;;5018741;28;20030;-77
2021/09/12 08:39:01;;;;;;;41.85;18.73;;;18.30;99.90;;;;;;5017636;28;20063;-76
2021/09/12 08:41:29;;;;;;;33.03;17.38;;;18.30;99.90;;;;;;5016893;28;20097;-77
2021/09/12 08:43:54;;;;;;;45.65;21.30;;;18.40;99.90;;;;;;5016412;28;20534;-77
2021/09/12 08:46:20;;;;;;;44.05;20.48;;;18.50;99.90;;;;;;5017198;28;20072;-77
2021/09/12 08:48:45;;;;;;;48.20;19.08;;;18.70;99.90;;;;;;5019395;28;20034;-79
2021/09/12 08:51:12;;;;;;;49.28;19.23;;;18.90;99.90;;;;;;5018480;28;20052;-76
2021/09/12 08:53:37;;;;;;;37.42;18.90;;;18.90;99.90;;;;;;5017404;28;20069;-77
2021/09/12 08:56:03;;;;;;;41.88;21.05;;;19.00;99.90;;;;;;5016941;28;20029;-77
2021/09/12 08:58:29;;;;;;;42.38;20.85;;;19.20;99.90;;;;;;5016484;28;20422;-77
2021/09/12 09:00:58;;;;;;;44.92;21.63;;;19.20;99.90;;;;;;5016283;28;20033;-78
2021/09/12 09:03:39;;;;;;;50.58;20.98;;;19.10;99.90;;;;;;5016664;28;20101;-77
2021/09/12 09:06:18;;;;;;;39.10;21.17;;;19.30;99.90;;;;;;5015516;28;20030;-76
2021/09/12 09:08:52;;;;;;;35.75;21.85;;;19.30;99.90;;;;;;5016043;28;20545;-78
2021/09/12 09:11:35;;;;;;;50.97;20.60;;;19.40;99.90;;;;;;5015987;28;20018;-77
2021/09/12 09:14:21;;;;;;;40.33;20.95;;;19.50;99.90;;;;;;5015254;28;20030;-77
2021/09/12 09:16:49;;;;;;;47.15;22.67;;;19.60;99.90;;;;;;5015271;28;20049;-77
2021/09/12 09:19:16;;;;;;;44.38;23.60;;;19.80;99.90;;;;;;5015018;28;20061;-77
2021/09/12 09:21:47;;;;;;;50.92;26.38;;;19.80;99.90;;;;;;5015590;28;20036;-77
2021/09/12 09:24:22;;;;;;;46.55;27.77;;;19.90;99.90;;;;;;5015589;28;20026;-76
2021/09/12 09:26:56;;;;;;;52.78;25.67;;;19.90;99.90;;;;;;5014801;28;20044;-77
2021/09/12 09:29:30;;;;;;;46.45;26.20;;;19.80;99.90;;;;;;5015352;28;20022;-76
2021/09/12 09:32:08;;;;;;;51.53;29.23;;;19.80;99.90;;;;;;5015575;28;20033;-76
2021/09/12 09:34:37;;;;;;;49.85;28.05;;;19.80;99.90;;;;;;5014579;28;20448;-77
2021/09/12 09:37:11;;;;;;;43.55;27.00;;;19.80;99.90;;;;;;5014932;28;20022;-76
2021/09/12 09:39:42;;;;;;;51.95;28.60;;;19.80;99.90;;;;;;5015138;28;20038;-75
2021/09/12 09:42:43;;;;;;;42.22;25.98;;;19.80;99.90;;;;;;5014572;28;20490;-76
2021/09/12 09:45:10;;;;;;;42.22;26.33;;;19.70;99.90;;;;;;5015138;28;20379;-77
2021/09/12 09:47:38;;;;;;;42.55;25.77;;;19.70;99.90;;;;;;5014168;28;20486;-78
2021/09/12 09:50:18;;;;;;;48.22;28.10;;;19.70;99.90;;;;;;5014836;28;20069;-77
2021/09/12 09:52:46;;;;;;;44.95;26.85;;;19.90;99.90;;;;;;5014767;28;20105;-76
2021/09/12 09:55:16;;;;;;;47.38;28.23;;;20.10;99.90;;;;;;5014392;28;20030;-77
2021/09/12 09:58:09;;;;;;;51.40;30.40;;;20.20;99.90;;;;;;5014726;28;20061;-76
2021/09/12 10:00:35;;;;;;;48.50;28.52;;;20.20;99.90;;;;;;5013472;28;20501;-74
2021/09/12 10:03:01;;;;;;;49.40;31.17;;;20.30;99.90;;;;;;5014033;28;20109;-76
2021/09/12 10:05:28;;;;;;;45.55;31.30;;;20.30;99.90;;;;;;5014893;28;20037;-76
2021/09/12 10:07:58;;;;;;;52.85;29.80;;;20.20;99.90;;;;;;5014690;28;20125;-75
2021/09/12 10:10:23;;;;;;;49.88;30.20;;;20.30;99.90;;;;;;5014584;28;20022;-78
2021/09/12 10:12:56;;;;;;;47.22;30.23;;;20.30;99.90;;;;;;5014307;28;20041;-76
2021/09/12 10:15:25;;;;;;;44.60;29.42;;;20.30;99.90;;;;;;5014011;28;20033;-76
2021/09/12 10:17:52;;;;;;;42.45;28.05;;;20.40;99.90;;;;;;5014342;28;20026;-77
2021/09/12 10:20:23;;;;;;;46.53;31.00;;;20.40;99.90;;;;;;5014383;28;20038;-75
2021/09/12 10:22:51;;;;;;;52.03;31.65;;;20.50;99.90;;;;;;5014090;28;20026;-75
2021/09/12 10:25:20;;;;;;;44.50;30.38;;;20.50;99.90;;;;;;5014218;28;20030;-76
2021/09/12 10:27:47;;;;;;;43.17;29.27;;;20.70;99.90;;;;;;5014123;28;20033;-76
2021/09/12 10:30:40;;;;;;;45.40;30.17;;;20.80;99.90;;;;;;5013672;28;20029;-76
2021/09/12 10:33:05;;;;;;;48.88;29.75;;;21.00;99.90;;;;;;5014197;28;20200;-76
2021/09/12 10:35:38;;;;;;;36.72;27.77;;;21.20;99.90;;;;;;5014492;28;20049;-77
2021/09/12 10:38:11;;;;;;;39.30;27.85;;;21.30;99.90;;;;;;5013437;28;20359;-77
2021/09/12 10:40:46;;;;;;;44.22;29.15;;;21.40;99.90;;;;;;5015103;28;20033;-77
2021/09/12 10:43:30;;;;;;;48.08;31.20;;;21.50;99.90;;;;;;5013752;28;20064;-77
2021/09/12 10:46:02;;;;;;;50.15;29.15;;;21.60;99.90;;;;;;5014845;28;20040;-77
2021/09/12 10:48:36;;;;;;;44.17;31.05;;;21.70;99.90;;;;;;5013915;28;20026;-75
2021/09/12 10:51:04;;;;;;;45.88;30.75;;;21.90;99.90;;;;;;5012662;28;20034;-78
2021/09/12 10:53:44;;;;;;;47.22;31.75;;;21.90;99.90;;;;;;5013810;28;20042;-76
2021/09/12 10:56:12;;;;;;;44.60;31.85;;;22.00;99.90;;;;;;5013979;28;20026;-79
2021/09/12 10:58:38;;;;;;;44.47;31.55;;;22.00;99.90;;;;;;5013018;28;20470;-76
2021/09/12 11:01:05;;;;;;;46.72;31.58;;;22.00;99.90;;;;;;5013530;28;20141;-76
2021/09/12 11:03:32;;;;;;;44.67;32.05;;;22.00;99.90;;;;;;5014309;28;20041;-76
2021/09/12 11:05:58;;;;;;;42.40;28.98;;;22.00;99.90;;;;;;5012900;28;20025;-75
2021/09/12 11:08:39;;;;;;;37.17;27.73;;;22.00;99.90;;;;;;5013671;28;20034;-77
2021/09/12 11:11:09;;;;;;;40.75;28.27;;;22.00;99.90;;;;;;5013589;28;20079;-76
2021/09/12 11:13:38;;;;;;;43.13;30.23;;;22.10;99.90;;;;;;5012703;28;20018;-77
2021/09/12 11:16:10;;;;;;;39.72;28.83;;;22.10;99.90;;;;;;5013642;28;20030;-77
2021/09/12 11:19:00;;;;;;;43.72;28.10;;;22.10;99.90;;;;;;5012870;28;20048;-76
2021/09/12 11:21:38;;;;;;;32.25;25.02;;;22.20;99.90;;;;;;5013484;28;20030;-77
2021/09/12 11:24:09;;;;;;;33.65;27.92;;;22.30;99.90;;;;;;5014011;28;20029;-76
2021/09/12 11:26:40;;;;;;;41.33;26.73;;;22.30;99.90;;;;;;5013081;28;20382;-76
2021/09/12 11:29:33;;;;;;;34.13;26.20;;;22.20;99.90;;;;;;5013925;28;20033;-76
2021/09/12 11:32:03;;;;;;;40.58;27.85;;;22.20;99.90;;;;;;5012811;28;20069;-76
2021/09/12 11:34:29;;;;;;;37.70;29.58;;;22.10;99.90;;;;;;5013323;28;20117;-76
2021/09/12 11:37:00;;;;;;;37.53;24.92;;;22.00;99.90;;;;;;5013535;28;20037;-75
2021/09/12 11:39:31;;;;;;;36.47;25.27;;;21.90;99.90;;;;;;5012854;28;20038;-76
2021/09/12 11:41:59;;;;;;;34.00;26.42;;;21.90;99.90;;;;;;5014011;28;20036;-77
2021/09/12 11:44:45;;;;;;;33.03;24.90;;;21.80;99.90;;;;;;5013006;28;20037;-77
2021/09/12 11:47:13;;;;;;;31.88;25.38;;;21.70;99.90;;;;;;5013536;28;20034;-77
2021/09/12 11:49:40;;;;;;;34.25;25.83;;;21.50;99.90;;;;;;5013982;28;20030;-77
2021/09/12 11:52:09;;;;;;;34.63;25.92;;;21.50;99.90;;;;;;5013110;28;20093;-77
2021/09/12 11:54:36;;;;;;;35.22;25.58;;;21.60;99.90;;;;;;5013359;28;20030;-77
2021/09/12 11:57:10;;;;;;;33.13;24.90;;;21.50;99.90;;;;;;5014708;28;20052;-76
2021/09/12 11:59:46;;;;;;;39.65;25.52;;;21.50;99.90;;;;;;5015264;28;20254;-78
2021/09/12 12:02:15;;;;;;;21.80;19.58;;;21.60;99.90;;;;;;5019594;28;20018;-77
2021/09/12 12:04:49;;;;;;;16.83;14.88;;;21.70;99.90;;;;;;5019920;28;20029;-77
2021/09/12 12:07:17;;;;;;;16.98;12.50;;;21.70;99.90;;;;;;5018223;28;20562;-77
2021/09/12 12:09:48;;;;;;;17.67;14.68;;;21.70;99.90;;;;;;5016749;28;20468;-77
2021/09/12 12:12:16;;;;;;;22.95;15.43;;;21.70;99.90;;;;;;5017279;28;20013;-78
2021/09/12 12:15:00;;;;;;;15.05;12.60;;;21.60;99.90;;;;;;5016736;28;20030;-77
2021/09/12 12:17:26;;;;;;;7.25;5.57;;;21.60;99.90;;;;;;5018869;28;20026;-77
2021/09/12 12:19:55;;;;;;;5.80;5.22;;;21.70;99.90;;;;;;5017759;28;20069;-77
2021/09/12 12:22:23;;;;;;;2.75;2.47;;;21.70;99.90;;;;;;5017100;28;20026;-76
2021/09/12 12:24:54;;;;;;;2.63;2.40;;;21.70;99.90;;;;;;5017566;28;20029;-77
2021/09/12 12:27:20;;;;;;;3.10;2.42;;;21.80;99.90;;;;;;5016991;28;20490;-77
2021/09/12 12:29:59;;;;;;;4.53;2.47;;;21.90;99.90;;;;;;5016682;28;20060;-77
2021/09/12 12:32:26;;;;;;;2.50;2.30;;;22.00;99.90;;;;;;5018461;28;20018;-76